Time;durP1;ratioP1;P1;durP2;ratioP2;P2;SDS_P1;SDS_P2;PMS_P1;PMS_P2;Temp;Humidity;BMP_temperature;BMP_pressure;BME280_temperature;BME280_humidity;BME280_pressure;Samples;Min_cycle;Max_cycle;Signal;HPM_P1;HPM_P2
2023/01/23 00:02:56;;;;;;;;;;;19.30;52.60;;;;;;6319279;28;19908;-67
2023/01/23 00:06:07;;;;;;;;;;;19.20;52.50;;;;;;6319249;28;19912;-67
2023/01/23 00:09:08;;;;;;;;;;;19.30;52.60;;;;;;6301771;28;20460;-68
2023/01/23 00:12:09;;;;;;;;;;;19.20;52.50;;;;;;6292965;28;19937;-67
2023/01/23 00:15:11;;;;;;;;;;;19.20;52.50;;;;;;6317858;28;19908;-67
2023/01/23 00:18:11;;;;;;;;;;;19.20;52.50;;;;;;6301093;28;19961;-67
2023/01/23 00:21:16;;;;;;;;;;;19.20;52.50;;;;;;6300872;28;20353;-67
2023/01/23 00:24:17;;;;;;;;;;;19.20;52.50;;;;;;6300721;28;19995;-66
2023/01/23 00:27:17;;;;;;;;;;;19.30;52.60;;;;;;6300606;28;20287;-68
2023/01/23 00:30:18;;;;;;;;;;;19.30;52.60;;;;;;6319287;28;19915;-67
2023/01/23 00:33:18;;;;;;;;;;;19.30;52.60;;;;;;6300645;28;20031;-67
2023/01/23 00:36:19;;;;;;;;;;;19.20;52.50;;;;;;6300581;28;19999;-67
2023/01/23 00:39:20;;;;;;;;;;;19.20;52.50;;;;;;6318598;28;20007;-67
2023/01/23 00:42:21;;;;;;;;;;;19.20;52.50;;;;;;6300572;28;19919;-67
2023/01/23 00:45:21;;;;;;;;;;;19.30;52.60;;;;;;6318428;28;19962;-68
2023/01/23 00:48:22;;;;;;;;;;;19.30;52.60;;;;;;6318577;28;19915;-67
2023/01/23 00:51:23;;;;;;;;;;;19.20;52.60;;;;;;6300191;28;20002;-66
2023/01/23 00:54:24;;;;;;;;;;;19.20;52.50;;;;;;6300427;28;19904;-68
2023/01/23 00:57:25;;;;;;;;;;;19.20;52.50;;;;;;6318218;28;19961;-67
2023/01/23 01:00:25;;;;;;;;;;;19.20;52.50;;;;;;6317658;28;19911;-67
2023/01/23 01:03:26;;;;;;;;;;;19.20;52.50;;;;;;6318313;28;19911;-66
2023/01/23 01:06:28;;;;;;;;;;;19.20;52.50;;;;;;6318836;28;20455;-67
2023/01/23 01:09:29;;;;;;;;;;;19.20;52.50;;;;;;6318310;28;20281;-68
2023/01/23 01:12:29;;;;;;;;;;;19.20;52.50;;;;;;6308253;28;19908;-67
2023/01/23 01:15:30;;;;;;;;;;;19.20;52.50;;;;;;6317977;28;19935;-67
2023/01/23 01:18:31;;;;;;;;;;;19.20;52.50;;;;;;6300060;28;20326;-67
2023/01/23 01:21:31;;;;;;;;;;;19.20;52.50;;;;;;6318018;28;20280;-67
2023/01/23 01:24:32;;;;;;;;;;;19.20;52.50;;;;;;6300037;28;20376;-68
2023/01/23 01:27:33;;;;;;;;;;;19.20;52.50;;;;;;6323335;28;20344;-67
2023/01/23 01:30:33;;;;;;;;;;;19.20;52.50;;;;;;6326455;28;19947;-67
2023/01/23 01:33:34;;;;;;;;;;;19.20;52.50;;;;;;6308077;28;19904;-67
2023/01/23 01:36:35;;;;;;;;;;;19.20;52.40;;;;;;6324666;28;20363;-68
2023/01/23 01:39:35;;;;;;;;;;;19.20;52.50;;;;;;6325636;28;19920;-68
2023/01/23 01:42:40;;;;;;;;;;;19.20;52.50;;;;;;6326396;28;19904;-67
2023/01/23 01:45:59;;;;;;;;;;;19.20;52.50;;;;;;6325863;28;19911;-67
2023/01/23 01:49:09;;;;;;;;;;;19.20;52.50;;;;;;6307745;28;19904;-66
2023/01/23 01:52:12;;;;;;;;;;;19.20;52.40;;;;;;6326040;28;19911;-67
2023/01/23 01:55:14;;;;;;;;;;;19.20;52.50;;;;;;6325822;28;19912;-67
2023/01/23 01:58:14;;;;;;;;;;;19.20;52.50;;;;;;6308011;28;20045;-67
2023/01/23 02:01:15;;;;;;;;;;;19.20;52.60;;;;;;6307433;28;19904;-67
2023/01/23 02:04:16;;;;;;;;;;;19.20;52.40;;;;;;6325644;28;20491;-67
2023/01/23 02:07:37;;;;;;;;;;;19.20;52.50;;;;;;6325649;28;19908;-67
2023/01/23 02:10:39;;;;;;;;;;;19.20;52.50;;;;;;6311076;28;19914;-67
2023/01/23 02:13:41;;;;;;;;;;;19.20;52.50;;;;;;6307833;28;19939;-67
2023/01/23 02:16:48;;;;;;;;;;;19.20;52.50;;;;;;6307403;28;20275;-67
2023/01/23 02:19:53;;;;;;;;;;;19.20;52.50;;;;;;6325540;28;19999;-67
2023/01/23 02:23:09;;;;;;;;;;;19.20;52.50;;;;;;6307656;28;19904;-67
2023/01/23 02:26:11;;;;;;;;;;;19.20;52.50;;;;;;6306986;28;19916;-67
2023/01/23 02:29:13;;;;;;;;;;;19.20;52.50;;;;;;6325716;28;19908;-67
2023/01/23 02:32:13;;;;;;;;;;;19.20;52.50;;;;;;6325553;28;19999;-68
2023/01/23 02:35:18;;;;;;;;;;;19.20;52.50;;;;;;6307778;28;19930;-66
2023/01/23 02:38:23;;;;;;;;;;;19.20;52.50;;;;;;6305635;28;20010;-67
2023/01/23 02:41:28;;;;;;;;;;;19.20;52.50;;;;;;6321540;28;19904;-67
2023/01/23 02:44:32;;;;;;;;;;;19.20;52.50;;;;;;6303377;28;20015;-67
2023/01/23 02:47:33;;;;;;;;;;;19.20;52.50;;;;;;6321568;28;19908;-67
2023/01/23 02:50:34;;;;;;;;;;;19.20;52.50;;;;;;6321343;28;19904;-67
2023/01/23 02:53:34;;;;;;;;;;;19.20;52.40;;;;;;6303592;28;19958;-67
2023/01/23 02:56:35;;;;;;;;;;;19.20;52.50;;;;;;6303089;28;19942;-68
2023/01/23 03:02:55;;;;;;;;;;;19.20;52.50;;;;;;6321592;28;20280;-67
2023/01/23 03:05:58;;;;;;;;;;;19.20;52.50;;;;;;6320504;28;20003;-68
2023/01/23 03:08:59;;;;;;;;;;;19.20;52.50;;;;;;6321310;28;19999;-67
2023/01/23 03:12:00;;;;;;;;;;;19.20;52.50;;;;;;6320887;28;20552;-67
2023/01/23 03:15:01;;;;;;;;;;;19.20;52.50;;;;;;6320967;28;19911;-67
2023/01/23 03:18:02;;;;;;;;;;;19.20;52.60;;;;;;6316719;28;19924;-67
2023/01/23 03:21:03;;;;;;;;;;;19.20;52.50;;;;;;6320880;28;19934;-66
2023/01/23 03:24:04;;;;;;;;;;;19.20;52.50;;;;;;6320679;28;20624;-68
2023/01/23 03:27:05;;;;;;;;;;;19.20;52.60;;;;;;6320560;28;19922;-67
2023/01/23 03:30:15;;;;;;;;;;;19.20;52.60;;;;;;6320546;28;20300;-67
2023/01/23 03:33:16;;;;;;;;;;;19.20;52.60;;;;;;6320488;28;19908;-67
2023/01/23 03:36:16;;;;;;;;;;;19.20;53.10;;;;;;6302348;28;19911;-67
2023/01/23 03:42:36;;;;;;;;;;;19.20;52.50;;;;;;6319920;28;20284;-66
2023/01/23 03:45:36;;;;;;;;;;;19.20;52.50;;;;;;6301882;28;19912;-68
2023/01/23 03:48:38;;;;;;;;;;;19.20;52.50;;;;;;6319812;28;19911;-67
2023/01/23 03:51:39;;;;;;;;;;;19.20;52.50;;;;;;6319494;28;20357;-67
2023/01/23 03:54:41;;;;;;;;;;;19.20;52.60;;;;;;6320310;28;19908;-67
2023/01/23 03:57:41;;;;;;;;;;;19.20;52.60;;;;;;6301623;28;19918;-67
2023/01/23 04:00:42;;;;;;;;;;;19.20;52.60;;;;;;6320284;28;19904;-67
2023/01/23 04:03:42;;;;;;;;;;;19.20;52.60;;;;;;6319176;28;19904;-67
2023/01/23 04:06:43;;;;;;;;;;;19.20;52.50;;;;;;6319621;28;19926;-67
2023/01/23 04:09:43;;;;;;;;;;;19.20;52.50;;;;;;6319648;28;19914;-67
2023/01/23 04:12:44;;;;;;;;;;;19.20;52.50;;;;;;6319211;28;19933;-67
2023/01/23 04:15:44;;;;;;;;;;;19.20;52.50;;;;;;6319320;28;19904;-67
2023/01/23 04:18:45;;;;;;;;;;;19.20;52.50;;;;;;6300925;28;19915;-68
2023/01/23 04:21:47;;;;;;;;;;;19.20;52.60;;;;;;6319069;28;19905;-67
2023/01/23 04:24:48;;;;;;;;;;;19.20;52.50;;;;;;6319196;28;19935;-68
2023/01/23 04:27:48;;;;;;;;;;;19.20;52.50;;;;;;6319094;28;19947;-67
2023/01/23 04:30:50;;;;;;;;;;;19.20;52.50;;;;;;6300964;28;19912;-67
2023/01/23 04:33:50;;;;;;;;;;;19.20;52.50;;;;;;6318954;28;19949;-67
2023/01/23 04:36:51;;;;;;;;;;;19.20;52.60;;;;;;6319085;28;19994;-66
2023/01/23 04:39:51;;;;;;;;;;;19.20;52.60;;;;;;6300578;28;19915;-67
2023/01/23 04:42:52;;;;;;;;;;;19.20;52.50;;;;;;6318852;28;19904;-67
2023/01/23 04:45:54;;;;;;;;;;;19.20;52.50;;;;;;6318261;28;19904;-67
2023/01/23 04:48:55;;;;;;;;;;;19.20;52.60;;;;;;6318910;28;19911;-67
2023/01/23 04:51:55;;;;;;;;;;;19.20;52.60;;;;;;6300251;28;19911;-67
2023/01/23 04:54:56;;;;;;;;;;;19.20;53.20;;;;;;6318370;28;19904;-67
2023/01/23 04:57:57;;;;;;;;;;;19.20;52.50;;;;;;6318157;28;19918;-67
2023/01/23 05:01:02;;;;;;;;;;;19.20;52.60;;;;;;6299529;28;19904;-67
2023/01/23 05:04:02;;;;;;;;;;;19.20;52.50;;;;;;6317879;28;19915;-67
2023/01/23 05:07:03;;;;;;;;;;;19.20;52.60;;;;;;6318260;28;19985;-66
2023/01/23 05:10:04;;;;;;;;;;;19.20;52.50;;;;;;6318331;28;19943;-67
2023/01/23 05:13:05;;;;;;;;;;;19.20;52.60;;;;;;6317796;28;19987;-67
2023/01/23 05:16:06;;;;;;;;;;;19.20;52.50;;;;;;6318048;28;19957;-67
2023/01/23 05:19:07;;;;;;;;;;;19.20;52.60;;;;;;6318041;28;19994;-67
2023/01/23 05:22:07;;;;;;;;;;;19.20;52.60;;;;;;6318399;28;19962;-68
2023/01/23 05:25:08;;;;;;;;;;;19.20;52.60;;;;;;6317005;28;19904;-67
2023/01/23 05:28:09;;;;;;;;;;;19.20;52.60;;;;;;6299964;28;20293;-67
2023/01/23 05:31:09;;;;;;;;;;;19.20;52.60;;;;;;6317807;28;19908;-67
2023/01/23 05:34:10;;;;;;;;;;;19.20;52.60;;;;;;6318001;28;19908;-68
2023/01/23 05:37:10;;;;;;;;;;;19.20;52.60;;;;;;6318024;28;19912;-68
2023/01/23 05:40:12;;;;;;;;;;;19.20;52.60;;;;;;6317645;28;19912;-67
2023/01/23 05:43:13;;;;;;;;;;;19.20;52.60;;;;;;6317419;28;20376;-67
2023/01/23 05:46:13;;;;;;;;;;;19.20;52.60;;;;;;6317222;28;19911;-67
2023/01/23 05:49:14;;;;;;;;;;;19.20;52.60;;;;;;6299144;28;19904;-67
2023/01/23 05:52:14;;;;;;;;;;;19.20;52.60;;;;;;6299428;28;19904;-67
2023/01/23 05:55:15;;;;;;;;;;;19.20;52.60;;;;;;6298872;28;19910;-68
2023/01/23 05:58:16;;;;;;;;;;;19.20;52.60;;;;;;6317013;28;19915;-67
2023/01/23 06:01:17;;;;;;;;;;;19.20;52.60;;;;;;6316637;28;19908;-67
2023/01/23 06:04:18;;;;;;;;;;;19.20;53.10;;;;;;6317141;28;19910;-67
2023/01/23 06:07:18;;;;;;;;;;;19.20;52.60;;;;;;6317400;28;19904;-67
2023/01/23 06:10:19;;;;;;;;;;;19.20;52.60;;;;;;6317348;28;20002;-67
2023/01/23 06:13:20;;;;;;;;;;;19.20;52.60;;;;;;6319416;28;19908;-67
2023/01/23 06:16:20;;;;;;;;;;;19.20;52.60;;;;;;6303525;28;19956;-68
2023/01/23 06:19:21;;;;;;;;;;;19.20;52.60;;;;;;6321759;28;19912;-67
2023/01/23 06:22:21;;;;;;;;;;;19.20;52.60;;;;;;6322354;28;19915;-67
2023/01/23 06:25:22;;;;;;;;;;;19.20;52.50;;;;;;6345556;28;19904;-67
2023/01/23 06:28:22;;;;;;;;;;;19.20;52.60;;;;;;6347263;28;19923;-68
2023/01/23 06:31:23;;;;;;;;;;;19.20;52.60;;;;;;6323818;28;20317;-68
2023/01/23 06:34:23;;;;;;;;;;;19.20;52.60;;;;;;6321715;28;19904;-67
2023/01/23 06:37:24;;;;;;;;;;;19.20;52.60;;;;;;6321649;28;19915;-67
2023/01/23 06:40:24;;;;;;;;;;;19.20;52.60;;;;;;6321766;28;19915;-67
2023/01/23 06:43:25;;;;;;;;;;;19.20;52.60;;;;;;6321121;28;19904;-65
2023/01/23 06:46:26;;;;;;;;;;;19.20;52.60;;;;;;6321185;28;19914;-68
2023/01/23 06:49:26;;;;;;;;;;;19.20;52.60;;;;;;6321238;28;19904;-67
2023/01/23 06:52:27;;;;;;;;;;;19.20;52.60;;;;;;6321553;28;19904;-67
2023/01/23 06:55:28;;;;;;;;;;;19.20;52.60;;;;;;6321328;28;19904;-68
2023/01/23 06:58:28;;;;;;;;;;;19.20;52.60;;;;;;6321430;28;19914;-67
2023/01/23 07:01:29;;;;;;;;;;;19.20;52.60;;;;;;6321634;28;19908;-68
2023/01/23 07:04:29;;;;;;;;;;;19.20;52.60;;;;;;6324265;28;19966;-67
2023/01/23 07:07:30;;;;;;;;;;;19.20;52.60;;;;;;6304940;28;19911;-68
2023/01/23 07:10:31;;;;;;;;;;;19.20;52.50;;;;;;6323208;28;19919;-67
2023/01/23 07:13:31;;;;;;;;;;;19.20;52.60;;;;;;6322946;28;19908;-67
2023/01/23 07:16:34;;;;;;;;;;;19.20;52.60;;;;;;6322711;28;20437;-67
2023/01/23 07:19:35;;;;;;;;;;;19.20;52.50;;;;;;6322948;28;19908;-67
2023/01/23 07:22:35;;;;;;;;;;;19.20;52.60;;;;;;6323079;28;19961;-67
2023/01/23 07:25:36;;;;;;;;;;;19.20;52.60;;;;;;6302990;28;19994;-67
2023/01/23 07:28:37;;;;;;;;;;;19.20;52.50;;;;;;6304591;28;19912;-68
2023/01/23 07:31:38;;;;;;;;;;;19.20;52.60;;;;;;6304548;28;19911;-67
2023/01/23 07:34:38;;;;;;;;;;;19.20;52.50;;;;;;6322593;28;19904;-66
2023/01/23 07:37:39;;;;;;;;;;;19.20;52.60;;;;;;6304319;28;19904;-67
2023/01/23 07:40:41;;;;;;;;;;;19.20;52.50;;;;;;6322280;28;19908;-67
2023/01/23 07:43:42;;;;;;;;;;;19.20;52.50;;;;;;6322433;28;20011;-67
2023/01/23 07:46:43;;;;;;;;;;;19.20;52.60;;;;;;6317661;28;19911;-68
2023/01/23 07:49:44;;;;;;;;;;;19.20;52.50;;;;;;6295570;28;19930;-68
2023/01/23 07:52:44;;;;;;;;;;;19.20;52.50;;;;;;6326637;28;20380;-67
2023/01/23 07:55:45;;;;;;;;;;;19.20;52.50;;;;;;6318879;28;19939;-68
2023/01/23 07:58:48;;;;;;;;;;;19.20;52.50;;;;;;6327398;28;19914;-69
2023/01/23 08:01:51;;;;;;;;;;;19.20;52.50;;;;;;6346760;28;20342;-67
2023/01/23 08:04:51;;;;;;;;;;;19.20;52.50;;;;;;6347029;28;19952;-68
2023/01/23 08:07:52;;;;;;;;;;;19.20;52.50;;;;;;6319881;28;20315;-68
2023/01/23 08:10:53;;;;;;;;;;;19.20;52.50;;;;;;6320973;28;19908;-68
2023/01/23 08:13:53;;;;;;;;;;;19.20;52.50;;;;;;6344776;28;19904;-67
2023/01/23 08:16:54;;;;;;;;;;;19.20;52.50;;;;;;6313783;28;19908;-68
2023/01/23 08:19:54;;;;;;;;;;;19.20;52.60;;;;;;6320179;28;20019;-68
2023/01/23 08:22:57;;;;;;;;;;;19.20;52.60;;;;;;6333895;28;19911;-67
2023/01/23 08:25:59;;;;;;;;;;;19.20;52.60;;;;;;6322566;28;19916;-68
2023/01/23 08:28:59;;;;;;;;;;;19.20;52.60;;;;;;6331117;28;19904;-68
2023/01/23 08:32:00;;;;;;;;;;;19.20;52.60;;;;;;6321238;28;19950;-67
2023/01/23 08:35:01;;;;;;;;;;;19.20;52.60;;;;;;6321294;28;19904;-68
2023/01/23 08:38:02;;;;;;;;;;;19.20;52.60;;;;;;6312932;28;19908;-67
2023/01/23 08:41:03;;;;;;;;;;;19.20;52.60;;;;;;6300684;28;19912;-68
2023/01/23 08:44:03;;;;;;;;;;;19.20;52.60;;;;;;6295831;28;19904;-67
2023/01/23 08:47:04;;;;;;;;;;;19.20;52.60;;;;;;6319803;28;19904;-68
2023/01/23 08:50:05;;;;;;;;;;;19.20;52.60;;;;;;6332612;28;19910;-68
2023/01/23 08:53:06;;;;;;;;;;;19.20;52.60;;;;;;6330041;28;19935;-68
2023/01/23 08:56:07;;;;;;;;;;;19.20;52.70;;;;;;6301487;28;19970;-68
2023/01/23 08:59:08;;;;;;;;;;;19.20;52.60;;;;;;6327163;28;19908;-67
2023/01/23 09:02:10;;;;;;;;;;;19.20;52.60;;;;;;6320432;28;19904;-71
2023/01/23 09:05:11;;;;;;;;;;;19.20;52.60;;;;;;6321222;28;19904;-67
2023/01/23 09:08:11;;;;;;;;;;;19.20;52.70;;;;;;6321034;28;20030;-66
2023/01/23 09:11:12;;;;;;;;;;;19.20;52.60;;;;;;6321023;28;19908;-67
2023/01/23 09:14:13;;;;;;;;;;;19.10;51.70;;;;;;6335485;28;19979;-66
2023/01/23 09:17:13;;;;;;;;;;;19.10;50.20;;;;;;6346212;28;19974;-67
2023/01/23 09:20:14;;;;;;;;;;;19.10;49.20;;;;;;6345834;28;19907;-66
2023/01/23 09:23:14;;;;;;;;;;;19.10;48.50;;;;;;6340383;28;19911;-67
2023/01/23 09:26:15;;;;;;;;;;;19.10;48.20;;;;;;6320959;28;19919;-64
2023/01/23 09:29:16;;;;;;;;;;;19.10;47.70;;;;;;6294432;28;19908;-66
2023/01/23 09:32:17;;;;;;;;;;;19.10;47.20;;;;;;6295865;28;19904;-67
2023/01/23 09:35:17;;;;;;;;;;;19.10;48.20;;;;;;6295961;28;19904;-67
2023/01/23 09:38:18;;;;;;;;;;;19.10;47.00;;;;;;6296075;28;20311;-67
2023/01/23 09:41:20;;;;;;;;;;;19.00;47.00;;;;;;6277775;28;19905;-67
2023/01/23 09:44:39;;;;;;;;;;;19.00;46.60;;;;;;6307725;28;20369;-66
2023/01/23 09:47:47;;;;;;;;;;;19.00;47.00;;;;;;6322021;28;19911;-67
2023/01/23 09:50:53;;;;;;;;;;;19.00;46.30;;;;;;6330418;28;19911;-65
2023/01/23 09:54:00;;;;;;;;;;;19.00;45.80;;;;;;6325980;28;19954;-66
2023/01/23 09:57:03;;;;;;;;;;;19.00;46.20;;;;;;6307336;28;19904;-68
2023/01/23 10:00:05;;;;;;;;;;;19.00;45.90;;;;;;6341212;28;19915;-66
2023/01/23 10:03:14;;;;;;;;;;;19.00;45.40;;;;;;6350281;28;20292;-68
2023/01/23 10:06:18;;;;;;;;;;;19.00;45.90;;;;;;6350240;28;20120;-68
2023/01/23 10:09:24;;;;;;;;;;;19.00;46.40;;;;;;6332523;28;19908;-66
2023/01/23 10:12:31;;;;;;;;;;;19.00;46.60;;;;;;6306401;28;19953;-69
2023/01/23 10:15:50;;;;;;;;;;;19.00;46.80;;;;;;6297996;28;19966;-67
2023/01/23 10:19:09;;;;;;;;;;;19.00;47.10;;;;;;6301005;28;19958;-68
2023/01/23 10:22:27;;;;;;;;;;;19.00;47.40;;;;;;6331399;28;20249;-68
2023/01/23 10:25:31;;;;;;;;;;;19.00;47.70;;;;;;6348464;28;20375;-69
2023/01/23 10:28:37;;;;;;;;;;;19.10;47.80;;;;;;6323015;28;19931;-69
2023/01/23 10:31:40;;;;;;;;;;;19.20;48.00;;;;;;6290176;28;20365;-67
2023/01/23 10:34:47;;;;;;;;;;;19.20;48.20;;;;;;6306557;28;19903;-69
2023/01/23 10:37:51;;;;;;;;;;;19.20;48.60;;;;;;6319317;28;20344;-73
2023/01/23 10:44:15;;;;;;;;;;;19.20;49.30;;;;;;6324133;28;20035;-68
2023/01/23 10:47:19;;;;;;;;;;;19.20;48.80;;;;;;6313560;28;20383;-68
2023/01/23 10:50:33;;;;;;;;;;;19.20;47.30;;;;;;6315236;28;19908;-68
2023/01/23 10:53:33;;;;;;;;;;;19.20;47.40;;;;;;6316776;28;20378;-68
2023/01/23 10:56:36;;;;;;;;;;;19.20;48.20;;;;;;6306347;28;19907;-68
2023/01/23 10:59:42;;;;;;;;;;;19.20;48.00;;;;;;6346759;28;20371;-67
2023/01/23 11:02:43;;;;;;;;;;;19.20;48.30;;;;;;6329567;28;19995;-66
2023/01/23 11:05:49;;;;;;;;;;;19.20;48.50;;;;;;6338186;28;20283;-67
2023/01/23 11:08:50;;;;;;;;;;;19.20;48.60;;;;;;6342891;28;19911;-68
2023/01/23 11:11:58;;;;;;;;;;;19.20;48.70;;;;;;6332241;28;19904;-67
2023/01/23 11:15:17;;;;;;;;;;;19.20;48.70;;;;;;6326874;28;19910;-68
2023/01/23 11:18:44;;;;;;;;;;;19.20;48.80;;;;;;6347730;28;19925;-68
2023/01/23 11:21:55;;;;;;;;;;;19.20;48.80;;;;;;6343067;28;20048;-67
2023/01/23 11:24:57;;;;;;;;;;;19.10;48.80;;;;;;6347708;28;19994;-68
2023/01/23 11:27:59;;;;;;;;;;;19.20;49.00;;;;;;6318845;28;19969;-68
2023/01/23 11:31:17;;;;;;;;;;;19.20;49.10;;;;;;6333324;28;19904;-67
2023/01/23 11:34:20;;;;;;;;;;;19.20;49.10;;;;;;6314710;28;19915;-67
2023/01/23 11:37:27;;;;;;;;;;;19.20;49.10;;;;;;6315380;28;19908;-68
2023/01/23 11:40:27;;;;;;;;;;;19.20;49.20;;;;;;6307884;28;19912;-67
2023/01/23 11:43:28;;;;;;;;;;;19.20;49.20;;;;;;6313540;28;19912;-68
2023/01/23 11:46:31;;;;;;;;;;;19.20;49.30;;;;;;6316105;28;19918;-68
2023/01/23 11:49:32;;;;;;;;;;;19.20;49.40;;;;;;6305028;28;19908;-68
2023/01/23 11:52:33;;;;;;;;;;;19.20;49.40;;;;;;6311269;28;19965;-67
2023/01/23 11:55:49;;;;;;;;;;;19.20;49.50;;;;;;6326001;28;19911;-68
2023/01/23 11:59:13;;;;;;;;;;;19.20;49.60;;;;;;6296554;28;19912;-67
2023/01/23 12:02:29;;;;;;;;;;;19.20;49.70;;;;;;6312846;28;20312;-68
2023/01/23 12:05:29;;;;;;;;;;;19.20;49.70;;;;;;6314520;28;19918;-67
2023/01/23 12:08:53;;;;;;;;;;;19.20;49.80;;;;;;6325324;28;19907;-68
2023/01/23 12:12:12;;;;;;;;;;;19.20;49.80;;;;;;6333402;28;20257;-67
2023/01/23 12:15:13;;;;;;;;;;;19.20;49.80;;;;;;6308276;28;20338;-66
2023/01/23 12:18:26;;;;;;;;;;;19.20;49.90;;;;;;6314214;28;19904;-67
2023/01/23 12:21:37;;;;;;;;;;;19.20;50.00;;;;;;6327505;28;19904;-67
2023/01/23 12:25:00;;;;;;;;;;;19.20;50.00;;;;;;6338791;28;19987;-68
2023/01/23 12:28:16;;;;;;;;;;;19.20;50.00;;;;;;6336121;28;19923;-68
2023/01/23 12:31:35;;;;;;;;;;;19.20;50.00;;;;;;6327076;28;19939;-67
2023/01/23 12:34:47;;;;;;;;;;;19.20;50.50;;;;;;6326913;28;19904;-67
2023/01/23 12:38:10;;;;;;;;;;;19.20;50.10;;;;;;6333982;28;19908;-67
2023/01/23 12:41:18;;;;;;;;;;;19.20;50.20;;;;;;6311586;28;20034;-67
2023/01/23 12:44:25;;;;;;;;;;;19.20;50.20;;;;;;6344787;28;20368;-67
2023/01/23 12:47:29;;;;;;;;;;;19.20;50.20;;;;;;6325731;28;20652;-67
2023/01/23 12:50:33;;;;;;;;;;;19.20;50.20;;;;;;6328884;28;19914;-71
2023/01/23 12:53:36;;;;;;;;;;;19.20;50.20;;;;;;6328913;28;19969;-68
2023/01/23 12:56:38;;;;;;;;;;;19.20;50.30;;;;;;6303630;28;19911;-68
2023/01/23 12:59:39;;;;;;;;;;;19.20;50.30;;;;;;6325666;28;19933;-74
2023/01/23 13:02:46;;;;;;;;;;;19.20;50.30;;;;;;6323339;28;19908;-68
2023/01/23 13:05:50;;;;;;;;;;;19.20;50.40;;;;;;6319324;28;19904;-68
2023/01/23 13:09:12;;;;;;;;;;;19.10;50.30;;;;;;6318827;28;19913;-68
2023/01/23 13:12:20;;;;;;;;;;;19.20;49.20;;;;;;6325117;28;20413;-68
2023/01/23 13:15:23;;;;;;;;;;;19.20;49.40;;;;;;6326417;28;19949;-68
2023/01/23 13:18:26;;;;;;;;;;;19.20;49.50;;;;;;6308857;28;19908;-73
2023/01/23 13:28:25;;;;;;;;;;;19.20;49.80;;;;;;6330295;28;19919;-68
2023/01/23 13:31:25;;;;;;;;;;;19.20;50.00;;;;;;6344750;28;19904;-66
2023/01/23 13:34:29;;;;;;;;;;;19.20;50.10;;;;;;6344388;28;19981;-68
2023/01/23 13:37:32;;;;;;;;;;;19.20;50.20;;;;;;6343811;28;19910;-68
2023/01/23 13:40:33;;;;;;;;;;;19.20;50.30;;;;;;6327222;28;19908;-68
2023/01/23 13:43:48;;;;;;;;;;;19.20;50.30;;;;;;6319220;28;19912;-68
2023/01/23 13:50:29;;;;;;;;;;;19.20;50.30;;;;;;6323605;28;19904;-67
2023/01/23 13:56:50;;;;;;;;;;;19.20;50.30;;;;;;6318772;28;20350;-68
2023/01/23 13:59:52;;;;;;;;;;;19.20;50.30;;;;;;6341147;28;19908;-68
2023/01/23 14:06:14;;;;;;;;;;;19.20;50.30;;;;;;6321012;28;19907;-69
2023/01/23 14:09:23;;;;;;;;;;;19.20;50.40;;;;;;6341699;28;19910;-68
2023/01/23 14:12:27;;;;;;;;;;;19.20;50.40;;;;;;6311066;28;19904;-69
2023/01/23 14:18:52;;;;;;;;;;;19.20;50.40;;;;;;6343924;28;20383;-68
2023/01/23 14:22:02;;;;;;;;;;;19.20;50.40;;;;;;6322252;28;19911;-69
2023/01/23 14:25:02;;;;;;;;;;;19.20;50.40;;;;;;6337964;28;19904;-68
2023/01/23 14:28:04;;;;;;;;;;;19.20;51.20;;;;;;6324905;28;19980;-68
2023/01/23 14:31:06;;;;;;;;;;;19.20;50.50;;;;;;6343413;28;20295;-69
2023/01/23 14:34:17;;;;;;;;;;;19.20;50.50;;;;;;6327603;28;20673;-68
2023/01/23 14:37:19;;;;;;;;;;;19.20;50.50;;;;;;6329542;28;19927;-68
2023/01/23 14:40:20;;;;;;;;;;;19.20;50.60;;;;;;6314099;28;19908;-69
2023/01/23 14:43:26;;;;;;;;;;;19.20;50.50;;;;;;6306736;28;19950;-69
2023/01/23 14:46:38;;;;;;;;;;;19.20;50.60;;;;;;6348335;28;19907;-69
2023/01/23 14:49:39;;;;;;;;;;;19.20;50.60;;;;;;6329143;28;20014;-68
2023/01/23 14:52:40;;;;;;;;;;;19.20;50.60;;;;;;6348220;28;19910;-68
2023/01/23 14:55:43;;;;;;;;;;;19.20;50.60;;;;;;6329698;28;20272;-72
2023/01/23 14:58:45;;;;;;;;;;;19.20;50.60;;;;;;6333768;28;19911;-67
2023/01/23 15:01:56;;;;;;;;;;;19.20;50.70;;;;;;6347971;28;20327;-68
2023/01/23 15:05:05;;;;;;;;;;;19.20;50.30;;;;;;6347506;28;19903;-68
2023/01/23 15:08:25;;;;;;;;;;;19.20;49.80;;;;;;6329302;28;19915;-68
2023/01/23 15:11:27;;;;;;;;;;;19.20;49.20;;;;;;6322526;28;20347;-69
2023/01/23 15:14:34;;;;;;;;;;;19.20;49.30;;;;;;6330409;28;19910;-68
2023/01/23 15:17:34;;;;;;;;;;;19.20;49.70;;;;;;6328974;28;19904;-67
2023/01/23 15:20:39;;;;;;;;;;;19.20;49.80;;;;;;6347391;28;19930;-68
2023/01/23 15:23:57;;;;;;;;;;;19.20;49.90;;;;;;6347175;28;20303;-68
2023/01/23 15:27:02;;;;;;;;;;;19.20;50.10;;;;;;6346952;28;19915;-73
2023/01/23 15:30:22;;;;;;;;;;;19.20;50.20;;;;;;6328767;28;20025;-68
2023/01/23 15:33:24;;;;;;;;;;;19.20;50.20;;;;;;6329018;28;19907;-68
2023/01/23 15:36:26;;;;;;;;;;;19.20;49.80;;;;;;6346725;28;19911;-67
2023/01/23 15:39:28;;;;;;;;;;;19.20;49.00;;;;;;6324046;28;19908;-66
2023/01/23 15:42:32;;;;;;;;;;;19.20;49.10;;;;;;6347617;28;19911;-63
2023/01/23 15:45:33;;;;;;;;;;;19.10;49.60;;;;;;6323168;28;19904;-68
2023/01/23 15:48:34;;;;;;;;;;;19.10;48.70;;;;;;6302622;28;20288;-69
2023/01/23 15:51:35;;;;;;;;;;;19.10;46.80;;;;;;6345320;28;19904;-69
2023/01/23 15:54:36;;;;;;;;;;;19.20;46.90;;;;;;6345909;28;20383;-68
2023/01/23 15:57:37;;;;;;;;;;;19.20;47.30;;;;;;6327439;28;19904;-68
2023/01/23 16:00:39;;;;;;;;;;;19.20;47.80;;;;;;6345548;28;19922;-69
2023/01/23 16:03:39;;;;;;;;;;;19.20;48.20;;;;;;6346531;28;19904;-68
2023/01/23 16:06:41;;;;;;;;;;;19.20;48.40;;;;;;6323659;28;19910;-68
2023/01/23 16:09:46;;;;;;;;;;;19.20;48.40;;;;;;6299826;28;19912;-68
2023/01/23 16:12:48;;;;;;;;;;;19.20;48.60;;;;;;6320430;28;19946;-69
2023/01/23 16:15:49;;;;;;;;;;;19.20;48.70;;;;;;6333654;28;19911;-68
2023/01/23 16:18:49;;;;;;;;;;;19.20;48.90;;;;;;6338280;28;19907;-68
2023/01/23 16:21:50;;;;;;;;;;;19.20;49.00;;;;;;6320333;28;19904;-68
2023/01/23 16:24:50;;;;;;;;;;;19.20;49.00;;;;;;6322348;28;19903;-69
2023/01/23 16:27:51;;;;;;;;;;;19.20;49.00;;;;;;6320022;28;19920;-69
2023/01/23 16:30:52;;;;;;;;;;;19.20;49.00;;;;;;6327125;28;19907;-68
2023/01/23 16:33:52;;;;;;;;;;;19.20;49.10;;;;;;6327113;28;19904;-69
2023/01/23 16:36:54;;;;;;;;;;;19.20;49.10;;;;;;6345454;28;19960;-68
2023/01/23 16:39:55;;;;;;;;;;;19.20;49.10;;;;;;6321667;28;20207;-69
2023/01/23 16:42:56;;;;;;;;;;;19.20;49.20;;;;;;6342928;28;19953;-69
2023/01/23 16:45:57;;;;;;;;;;;19.20;49.20;;;;;;6338085;28;20353;-68
2023/01/23 16:48:58;;;;;;;;;;;19.20;49.30;;;;;;6302821;28;19904;-68
2023/01/23 16:52:00;;;;;;;;;;;19.20;49.40;;;;;;6334222;28;19913;-68
2023/01/23 16:55:03;;;;;;;;;;;19.20;49.40;;;;;;6345120;28;19908;-69
2023/01/23 16:58:05;;;;;;;;;;;19.20;49.50;;;;;;6344080;28;20360;-68
2023/01/23 17:01:14;;;;;;;;;;;19.20;49.50;;;;;;6327610;28;19965;-68
2023/01/23 17:04:16;;;;;;;;;;;19.20;49.60;;;;;;6319994;28;19908;-69
2023/01/23 17:07:17;;;;;;;;;;;19.30;49.70;;;;;;6342830;28;20348;-68
2023/01/23 17:10:22;;;;;;;;;;;19.30;49.80;;;;;;6343997;28;19908;-68
2023/01/23 17:13:23;;;;;;;;;;;19.30;49.80;;;;;;6319503;28;19912;-68
2023/01/23 17:16:23;;;;;;;;;;;19.30;49.60;;;;;;6323548;28;19903;-68
2023/01/23 17:19:51;;;;;;;;;;;19.40;49.60;;;;;;6340978;28;20006;-68
2023/01/23 17:22:51;;;;;;;;;;;19.40;49.70;;;;;;6328069;28;20611;-67
2023/01/23 17:25:52;;;;;;;;;;;19.50;49.70;;;;;;6341823;28;19954;-68
2023/01/23 17:28:53;;;;;;;;;;;19.50;49.90;;;;;;6329567;28;19918;-68
2023/01/23 17:31:53;;;;;;;;;;;19.50;50.00;;;;;;6308283;28;19994;-68
2023/01/23 17:34:54;;;;;;;;;;;19.50;50.10;;;;;;6340386;28;19935;-68
2023/01/23 17:37:56;;;;;;;;;;;19.50;50.20;;;;;;6316415;28;19999;-68
2023/01/23 17:40:57;;;;;;;;;;;19.40;50.30;;;;;;6306135;28;19908;-68
2023/01/23 17:43:57;;;;;;;;;;;19.50;50.40;;;;;;6317228;28;19946;-68
2023/01/23 17:46:58;;;;;;;;;;;19.40;50.30;;;;;;6324703;28;19957;-67
2023/01/23 17:50:00;;;;;;;;;;;19.40;50.30;;;;;;6340689;28;19938;-68
2023/01/23 17:53:00;;;;;;;;;;;19.40;50.30;;;;;;6341721;28;19907;-68
2023/01/23 17:56:01;;;;;;;;;;;19.40;50.30;;;;;;6333327;28;19904;-68
2023/01/23 17:59:01;;;;;;;;;;;19.40;50.30;;;;;;6341589;28;19911;-68
2023/01/23 18:02:02;;;;;;;;;;;19.40;50.30;;;;;;6336387;28;19912;-68
2023/01/23 18:05:04;;;;;;;;;;;19.40;50.40;;;;;;6322257;28;19911;-68
2023/01/23 18:08:04;;;;;;;;;;;19.50;50.80;;;;;;6315826;28;19904;-69
2023/01/23 18:11:05;;;;;;;;;;;19.50;50.70;;;;;;6301304;28;19904;-68
2023/01/23 18:14:08;;;;;;;;;;;19.40;50.50;;;;;;6345592;28;19938;-68
2023/01/23 18:17:32;;;;;;;;;;;19.40;50.50;;;;;;6338101;28;19950;-68